Time;durP1;ratioP1;P1;durP2;ratioP2;P2;SDS_P1;SDS_P2;PMS_P1;PMS_P2;Temp;Humidity;BMP_temperature;BMP_pressure;BME280_temperature;BME280_humidity;BME280_pressure;Samples;Min_cycle;Max_cycle;Signal;HPM_P1;HPM_P2
2022/06/23 00:02:58;;;;;;;6.62;1.50;;;;;;;22.13;49.33;99885.69;5531188;32;34065;-66
2022/06/23 00:06:05;;;;;;;4.03;1.08;;;;;;;21.92;50.34;99886.53;5531125;32;34220;-66
2022/06/23 00:09:29;;;;;;;2.28;1.20;;;;;;;21.76;49.21;99890.12;5531252;32;34703;-66
2022/06/23 00:12:40;;;;;;;2.17;0.90;;;;;;;21.69;51.30;99893.00;5531130;32;33923;-66
2022/06/23 00:15:45;;;;;;;2.75;1.10;;;;;;;21.61;50.23;99894.28;5531243;32;34802;-66
2022/06/23 00:18:48;;;;;;;2.12;1.10;;;;;;;21.57;49.68;99893.16;5531061;32;34506;-67
2022/06/23 00:21:53;;;;;;;2.08;1.10;;;;;;;21.53;49.06;99892.03;5531182;32;33962;-66
2022/06/23 00:24:59;;;;;;;3.17;1.10;;;;;;;21.71;49.33;99906.25;5531120;32;33993;-66
2022/06/23 00:28:03;;;;;;;4.75;1.42;;;;;;;21.53;49.88;99905.53;5530933;32;34558;-67
2022/06/23 00:31:22;;;;;;;1.52;1.20;;;;;;;21.39;49.30;99917.75;5531005;32;34679;-66
2022/06/23 00:34:36;;;;;;;2.25;0.90;;;;;;;21.41;49.63;99914.78;5531270;32;34113;-67
2022/06/23 00:37:52;;;;;;;9.38;1.10;;;;;;;21.40;49.08;99918.53;5530765;32;34180;-66
2022/06/23 00:40:57;;;;;;;6.62;1.20;;;;;;;21.39;48.59;99917.75;5530856;32;34053;-66
2022/06/23 00:44:05;;;;;;;2.03;1.10;;;;;;;21.41;47.92;99915.59;5530958;32;34363;-66
2022/06/23 00:47:13;;;;;;;1.75;1.00;;;;;;;21.25;48.95;99919.19;5530931;32;34550;-66
2022/06/23 00:50:29;;;;;;;1.40;1.00;;;;;;;21.25;49.54;99925.37;5531027;32;34133;-66
2022/06/23 00:53:42;;;;;;;3.17;0.98;;;;;;;20.91;50.53;99933.72;5530102;32;33940;-66
2022/06/23 00:56:57;;;;;;;1.10;0.82;;;;;;;20.77;49.65;99931.34;5530835;32;34229;-66
2022/06/23 01:00:17;;;;;;;2.28;1.00;;;;;;;20.77;47.45;99934.03;5530742;32;34661;-66
2022/06/23 01:03:32;;;;;;;1.98;1.00;;;;;;;20.80;46.76;99936.25;5530844;32;34317;-66
2022/06/23 01:06:51;;;;;;;2.03;1.10;;;;;;;20.82;47.32;99925.22;5530620;32;35347;-66
2022/06/23 01:10:11;;;;;;;2.83;1.20;;;;;;;20.64;48.61;99928.16;5530370;32;34282;-66
2022/06/23 01:13:31;;;;;;;4.20;1.35;;;;;;;20.54;52.88;99923.41;5530493;32;34258;-65
2022/06/23 01:16:47;;;;;;;1.70;1.08;;;;;;;20.10;54.07;99930.41;5530411;32;33886;-66
2022/06/23 01:20:18;;;;;;;2.15;1.27;;;;;;;19.34;57.55;99939.59;5530674;32;34026;-67
2022/06/23 01:23:46;;;;;;;7.22;1.48;;;;;;;18.73;67.59;99947.28;5530268;32;35247;-67
2022/06/23 01:27:17;;;;;;;6.35;1.48;;;;;;;17.85;75.50;99942.50;5529722;32;33407;-68
2022/06/23 01:30:25;;;;;;;3.20;1.30;;;;;;;17.35;86.20;99937.28;5530384;32;34705;-67
2022/06/23 01:33:36;;;;;;;4.78;1.30;;;;;;;16.89;90.71;99942.25;5530173;32;34801;-66
2022/06/23 01:36:48;;;;;;;3.33;1.40;;;;;;;16.71;93.01;99934.97;5530129;32;33933;-67
2022/06/23 01:40:25;;;;;;;2.78;1.25;;;;;;;16.46;92.92;99945.63;5530196;32;34361;-66
2022/06/23 01:43:42;;;;;;;4.57;1.60;;;;;;;16.39;93.29;99939.50;5529892;32;34296;-66
2022/06/23 01:46:49;;;;;;;2.92;1.50;;;;;;;16.45;94.17;99941.31;5530044;32;33868;-66
2022/06/23 01:50:00;;;;;;;2.80;1.77;;;;;;;16.49;92.27;99941.72;5529953;32;33975;-66
2022/06/23 01:53:17;;;;;;;3.35;1.50;;;;;;;17.20;81.85;99934.13;5529873;32;34694;-66
2022/06/23 01:56:34;;;;;;;4.57;1.67;;;;;;;17.28;83.65;99930.34;5529879;32;34314;-66
2022/06/23 02:00:03;;;;;;;1.83;1.10;;;;;;;17.37;85.17;99934.38;5522985;32;215130;-66
2022/06/23 02:03:41;;;;;;;3.15;1.42;;;;;;;17.36;84.98;99930.88;5520116;32;32483;-66
2022/06/23 02:06:55;;;;;;;3.30;1.35;;;;;;;17.37;84.61;99931.69;5496966;32;34003;-66
2022/06/23 02:10:31;;;;;;;2.58;1.40;;;;;;;17.43;84.67;99917.37;5529542;32;33951;-66
2022/06/23 02:13:51;;;;;;;1.80;1.37;;;;;;;17.43;86.47;99930.78;5505540;32;34389;-66
2022/06/23 02:17:21;;;;;;;2.80;1.48;;;;;;;17.43;86.60;99946.06;5530458;32;34795;-66
2022/06/23 02:20:29;;;;;;;5.07;1.50;;;;;;;17.33;82.09;99943.91;5532056;32;34682;-66
2022/06/23 02:23:31;;;;;;;2.42;1.30;;;;;;;17.51;74.17;99949.28;5532259;32;34026;-66
2022/06/23 02:26:46;;;;;;;3.42;1.20;;;;;;;17.63;78.04;99942.13;5532220;32;33879;-66
2022/06/23 02:30:02;;;;;;;1.80;1.05;;;;;;;17.61;77.30;99944.25;5531299;32;34022;-66
2022/06/23 02:33:23;;;;;;;1.50;1.10;;;;;;;17.53;75.67;99949.03;5532079;32;34620;-66
2022/06/23 02:36:56;;;;;;;1.90;1.10;;;;;;;17.52;77.69;99950.91;5532337;32;35182;-66
2022/06/23 02:39:59;;;;;;;1.73;1.15;;;;;;;17.66;74.58;99963.16;5508583;32;33832;-66
2022/06/23 02:43:25;;;;;;;1.48;1.20;;;;;;;17.99;70.57;99953.88;5531984;32;33912;-66
2022/06/23 02:46:39;;;;;;;2.78;1.20;;;;;;;17.99;71.21;99968.13;5531882;32;34008;-66
2022/06/23 02:50:11;;;;;;;1.87;1.40;;;;;;;17.95;72.78;99963.44;5531828;32;34188;-66
2022/06/23 02:53:48;;;;;;;2.85;1.65;;;;;;;18.04;70.83;99970.97;5532216;32;34341;-66
2022/06/23 02:57:12;;;;;;;1.37;1.17;;;;;;;18.05;75.19;99969.94;5531901;32;34159;-66
2022/06/23 03:00:19;;;;;;;1.60;1.33;;;;;;;18.08;74.33;99977.50;5531815;32;34647;-66
2022/06/23 03:03:27;;;;;;;3.65;1.42;;;;;;;18.15;76.44;99978.22;5531696;32;34632;-66
2022/06/23 03:06:46;;;;;;;2.47;1.30;;;;;;;18.21;74.94;99989.94;5531900;32;33849;-66
2022/06/23 03:10:00;;;;;;;1.75;1.15;;;;;;;18.22;76.57;100005.00;5531796;32;34447;-66
2022/06/23 03:13:15;;;;;;;2.90;1.48;;;;;;;18.17;76.87;100003.00;5530912;32;35256;-66
2022/06/23 03:16:42;;;;;;;2.47;1.23;;;;;;;18.23;77.12;100004.78;5530922;32;33961;-66
2022/06/23 03:20:07;;;;;;;2.67;1.33;;;;;;;18.27;73.40;100013.19;5531611;32;35277;-66
2022/06/23 03:23:24;;;;;;;1.33;1.15;;;;;;;18.39;73.67;100002.53;5530894;32;32986;-66
2022/06/23 03:26:35;;;;;;;2.67;1.52;;;;;;;18.52;70.57;100000.47;5531498;32;34060;-66
2022/06/23 03:29:46;;;;;;;2.20;1.20;;;;;;;18.64;70.08;100003.19;5530672;32;34196;-66
2022/06/23 03:32:56;;;;;;;1.23;1.05;;;;;;;18.74;70.50;100011.53;5531556;32;34615;-66
2022/06/23 03:36:44;;;;;;;1.87;1.20;;;;;;;18.71;67.45;100008.50;5531883;32;34235;-67
2022/06/23 03:43:31;;;;;;;1.48;1.10;;;;;;;18.73;68.70;100015.28;5531778;32;34740;-66
2022/06/23 03:46:39;;;;;;;3.72;1.30;;;;;;;18.86;71.60;100017.75;5531881;32;33873;-66
2022/06/23 03:50:06;;;;;;;1.33;1.20;;;;;;;18.87;67.20;100021.28;5531360;32;33940;-66
2022/06/23 03:53:13;;;;;;;2.75;1.20;;;;;;;19.12;67.05;100023.78;5531405;32;33948;-67
2022/06/23 03:56:20;;;;;;;3.12;1.33;;;;;;;19.31;62.60;100030.69;5531481;32;34089;-66
2022/06/23 03:59:42;;;;;;;3.97;1.15;;;;;;;19.49;61.92;100038.69;5530559;32;33830;-66
2022/06/23 04:02:48;;;;;;;5.28;1.20;;;;;;;19.61;61.44;100038.66;5531209;32;34552;-66
2022/06/23 04:05:54;;;;;;;1.77;1.10;;;;;;;19.68;61.04;100028.59;5531195;32;33913;-66
2022/06/23 04:09:24;;;;;;;3.33;1.25;;;;;;;19.79;60.42;100042.06;5531266;32;33971;-67
2022/06/23 04:12:29;;;;;;;1.80;1.15;;;;;;;19.77;61.34;100038.78;5531255;32;34557;-67
2022/06/23 04:15:40;;;;;;;1.92;1.27;;;;;;;19.83;63.71;100034.31;5530408;32;34323;-66
2022/06/23 04:18:46;;;;;;;4.95;1.42;;;;;;;19.74;61.79;100047.34;5531106;32;34037;-66
2022/06/23 04:21:57;;;;;;;1.80;1.30;;;;;;;19.80;62.34;100056.34;5531396;32;33916;-66
2022/06/23 04:25:02;;;;;;;1.87;1.25;;;;;;;19.87;60.82;100057.84;5531005;32;34126;-66
2022/06/23 04:28:05;;;;;;;3.53;1.27;;;;;;;19.92;61.00;100063.34;5530923;32;34088;-67
2022/06/23 04:31:12;;;;;;;2.12;1.15;;;;;;;20.04;59.59;100066.03;5530949;32;34058;-66
2022/06/23 04:34:22;;;;;;;3.00;1.02;;;;;;;20.09;56.81;100076.09;5531309;32;34412;-66
2022/06/23 04:37:49;;;;;;;1.98;1.12;;;;;;;20.21;56.31;100075.00;5530878;32;33935;-66
2022/06/23 04:41:10;;;;;;;1.40;0.90;;;;;;;20.43;57.65;100080.56;5530338;32;34499;-66
2022/06/23 04:44:29;;;;;;;2.70;1.27;;;;;;;20.61;55.48;100083.12;5530136;32;34240;-67
2022/06/23 04:47:32;;;;;;;3.25;1.02;;;;;;;20.81;55.03;100088.88;5530960;32;33984;-67
2022/06/23 04:50:42;;;;;;;1.73;1.05;;;;;;;20.81;53.45;100093.47;5530455;32;33995;-67
2022/06/23 04:54:10;;;;;;;2.78;1.20;;;;;;;20.74;54.33;100106.25;5530008;32;35183;-67
2022/06/23 04:57:39;;;;;;;2.25;1.30;;;;;;;20.96;53.05;100101.00;5521991;32;34607;-67
2022/06/23 05:00:46;;;;;;;1.92;1.12;;;;;;;20.98;50.75;100099.69;5530405;32;32773;-68
2022/06/23 05:03:55;;;;;;;6.00;1.20;;;;;;;20.98;50.38;100107.78;5529513;32;34056;-67
2022/06/23 05:07:00;;;;;;;5.35;1.15;;;;;;;21.14;50.77;100109.75;5530669;32;33967;-68
2022/06/23 05:10:06;;;;;;;2.15;1.08;;;;;;;21.24;50.56;100114.50;5530419;32;34637;-67
2022/06/23 05:13:21;;;;;;;3.50;1.50;;;;;;;21.34;50.43;100120.06;5530276;32;33880;-68
2022/06/23 05:16:33;;;;;;;2.05;1.10;;;;;;;21.58;52.42;100124.25;5530063;32;33980;-67
2022/06/23 05:19:38;;;;;;;2.55;1.20;;;;;;;21.80;50.87;100123.47;5529283;32;34340;-67
2022/06/23 05:22:46;;;;;;;3.65;1.08;;;;;;;21.71;51.65;100123.06;5529801;32;34618;-68
2022/06/23 05:25:51;;;;;;;5.00;1.20;;;;;;;21.75;51.57;100126.09;5529718;32;34136;-68
2022/06/23 05:29:17;;;;;;;3.50;1.20;;;;;;;21.84;52.26;100140.81;5529785;32;34433;-68
2022/06/23 05:32:26;;;;;;;2.47;0.98;;;;;;;21.95;50.89;100129.13;5529831;32;34136;-67
2022/06/23 05:35:36;;;;;;;4.93;1.10;;;;;;;22.06;47.00;100147.12;5530217;32;34195;-68
2022/06/23 05:38:48;;;;;;;2.55;1.30;;;;;;;22.31;50.45;100146.66;5529877;32;35171;-67
2022/06/23 05:41:58;;;;;;;5.00;1.10;;;;;;;22.47;51.55;100145.78;5529542;32;34612;-67
2022/06/23 05:45:16;;;;;;;5.60;1.30;;;;;;;22.30;49.55;100145.03;5529388;32;34196;-67
2022/06/23 05:48:32;;;;;;;4.78;1.05;;;;;;;22.19;50.26;100149.47;5529797;32;33926;-68
2022/06/23 05:51:44;;;;;;;3.08;0.90;;;;;;;22.09;47.13;100152.84;5529891;32;34058;-66
2022/06/23 05:54:51;;;;;;;1.80;0.82;;;;;;;21.93;43.95;100153.69;5530985;32;33998;-67
2022/06/23 05:57:59;;;;;;;3.00;1.00;;;;;;;21.83;41.79;100164.31;5531939;32;34674;-67
2022/06/23 06:01:25;;;;;;;3.17;1.00;;;;;;;22.02;42.30;100165.72;5531130;32;33953;-68
2022/06/23 06:04:43;;;;;;;3.75;0.88;;;;;;;21.98;40.58;100158.34;5531892;32;34752;-68
2022/06/23 06:07:46;;;;;;;2.85;1.00;;;;;;;21.95;41.31;100156.97;5531237;32;33953;-68
2022/06/23 06:10:50;;;;;;;3.08;0.93;;;;;;;22.08;41.92;100169.28;5531039;32;32342;-67
2022/06/23 06:13:53;;;;;;;4.87;1.20;;;;;;;22.09;43.06;100177.16;5531656;32;33904;-67
2022/06/23 06:16:57;;;;;;;6.00;1.25;;;;;;;22.19;41.69;100172.97;5530586;32;33948;-67
2022/06/23 06:20:06;;;;;;;1.15;0.80;;;;;;;22.46;43.04;100176.59;5531137;32;34460;-68
2022/06/23 06:23:40;;;;;;;2.22;0.80;;;;;;;22.64;41.94;100179.00;5531746;32;34672;-67
2022/06/23 06:26:47;;;;;;;3.35;1.00;;;;;;;22.77;40.71;100183.22;5531683;32;33873;-67
2022/06/23 06:29:50;;;;;;;2.95;1.00;;;;;;;22.58;41.14;100181.88;5531270;32;34621;-67
2022/06/23 06:32:54;;;;;;;1.60;1.08;;;;;;;22.56;41.96;100181.34;5531819;32;34760;-67
2022/06/23 06:35:57;;;;;;;2.30;1.10;;;;;;;22.95;41.79;100180.19;5530777;32;34417;-67
2022/06/23 06:39:07;;;;;;;4.40;1.10;;;;;;;22.96;41.49;100174.53;5530962;32;33369;-67
2022/06/23 06:42:13;;;;;;;2.22;1.00;;;;;;;23.34;41.58;100187.09;5530390;32;33225;-68
2022/06/23 06:45:20;;;;;;;3.12;0.93;;;;;;;23.58;40.12;100184.91;5531224;32;34014;-66
2022/06/23 06:48:30;;;;;;;7.10;1.15;;;;;;;23.31;39.67;100193.03;5531591;32;34388;-67
2022/06/23 06:51:33;;;;;;;5.60;0.82;;;;;;;23.44;40.64;100190.97;5531680;32;35393;-67
2022/06/23 06:54:48;;;;;;;8.20;1.48;;;;;;;23.15;40.68;100191.22;5531761;32;34072;-66
2022/06/23 06:57:57;;;;;;;4.97;1.05;;;;;;;23.33;40.36;100200.91;5531538;32;35226;-67
2022/06/23 07:01:26;;;;;;;2.58;0.95;;;;;;;23.33;41.92;100199.00;5530787;32;34138;-67
2022/06/23 07:04:38;;;;;;;2.28;1.02;;;;;;;23.67;41.46;100194.19;5529129;32;33766;-65
2022/06/23 07:07:46;;;;;;;2.75;1.20;;;;;;;24.19;40.18;100198.97;5530495;32;35016;-67
2022/06/23 07:11:00;;;;;;;3.03;1.08;;;;;;;23.95;39.85;100198.50;5530923;32;34422;-66
2022/06/23 07:14:16;;;;;;;2.42;0.90;;;;;;;24.12;41.26;100199.16;5531170;32;34582;-66
2022/06/23 07:17:30;;;;;;;2.12;1.00;;;;;;;24.64;40.67;100203.84;5531974;32;33949;-68
2022/06/23 07:21:00;;;;;;;1.00;0.80;;;;;;;24.85;39.43;100205.53;5531431;32;34255;-67
2022/06/23 07:24:35;;;;;;;2.97;1.10;;;;;;;24.81;38.59;100217.19;5531617;32;34715;-67
2022/06/23 07:28:04;;;;;;;2.90;1.10;;;;;;;24.87;37.77;100211.56;5529446;32;33742;-67
2022/06/23 07:31:15;;;;;;;1.98;1.05;;;;;;;25.08;37.38;100207.81;5531328;32;34001;-67
2022/06/23 07:34:21;;;;;;;3.00;0.90;;;;;;;25.38;36.77;100208.97;5531254;32;33918;-67
2022/06/23 07:37:32;;;;;;;0.90;0.80;;;;;;;25.83;35.62;100217.19;5530504;32;32515;-68
2022/06/23 07:40:53;;;;;;;2.42;0.80;;;;;;;25.56;34.84;100213.13;5530323;32;34162;-67
2022/06/23 07:44:02;;;;;;;1.02;0.65;;;;;;;26.08;36.03;100221.00;5530436;32;33875;-67
2022/06/23 07:47:05;;;;;;;2.05;0.88;;;;;;;26.69;32.70;100227.13;5531348;32;34786;-69
2022/06/23 07:50:09;;;;;;;2.60;0.93;;;;;;;26.64;32.21;100230.69;5531039;32;33969;-68
2022/06/23 07:53:31;;;;;;;1.05;0.80;;;;;;;27.87;30.71;100228.94;5531316;32;34673;-68
2022/06/23 07:56:39;;;;;;;3.50;0.90;;;;;;;28.74;29.52;100235.22;5531555;32;33890;-68
2022/06/23 07:59:50;;;;;;;1.10;0.70;;;;;;;29.16;28.17;100234.41;5531242;32;34033;-67
2022/06/23 08:03:00;;;;;;;2.97;0.90;;;;;;;29.74;26.73;100226.72;5530843;32;34180;-69
2022/06/23 08:06:14;;;;;;;1.45;0.80;;;;;;;28.34;28.68;100228.25;5530852;32;34380;-68
2022/06/23 08:09:23;;;;;;;1.42;0.77;;;;;;;28.67;28.60;100232.00;5530909;32;34277;-68
2022/06/23 08:12:54;;;;;;;2.17;0.85;;;;;;;29.11;29.07;100234.47;5530683;32;35534;-68
2022/06/23 08:19:30;;;;;;;3.30;1.02;;;;;;;29.51;27.13;100231.19;5530882;32;34588;-69
2022/06/23 08:22:37;;;;;;;1.83;0.88;;;;;;;29.89;27.39;100231.16;5530625;32;33878;-67
2022/06/23 08:25:42;;;;;;;3.55;0.90;;;;;;;30.75;26.59;100227.66;5530763;32;33850;-69
2022/06/23 08:28:48;;;;;;;5.18;1.00;;;;;;;29.93;27.64;100229.47;5530521;32;34016;-68
2022/06/23 08:31:52;;;;;;;1.58;0.85;;;;;;;30.05;27.26;100230.63;5529475;32;33869;-68
2022/06/23 08:35:08;;;;;;;2.45;1.00;;;;;;;31.26;26.38;100223.87;5530319;32;34039;-68
2022/06/23 08:38:21;;;;;;;3.50;0.82;;;;;;;31.78;25.30;100214.97;5530355;32;33932;-67
2022/06/23 08:41:40;;;;;;;7.28;1.00;;;;;;;33.27;23.48;100221.59;5530480;32;34118;-68
2022/06/23 08:45:38;;;;;;;4.37;0.90;;;;;;;33.27;23.51;100225.16;5529582;32;33444;-68
2022/06/23 08:48:47;;;;;;;5.80;0.93;;;;;;;33.63;24.00;100227.59;5524456;32;33999;-67
2022/06/23 08:52:19;;;;;;;3.35;1.02;;;;;;;34.19;23.04;100228.50;5504865;32;32893;-67
2022/06/23 08:55:31;;;;;;;2.12;0.90;;;;;;;35.49;19.88;100230.25;5530674;32;34072;-68
2022/06/23 08:59:03;;;;;;;1.58;0.75;;;;;;;33.62;21.90;100223.22;5529272;32;34256;-69
2022/06/23 09:02:21;;;;;;;3.55;0.80;;;;;;;35.70;19.96;100216.47;5529748;32;34347;-67
2022/06/23 09:06:27;;;;;;;3.80;0.80;;;;;;;36.22;19.00;100216.75;5529577;32;32408;-68
2022/06/23 09:09:44;;;;;;;2.08;0.90;;;;;;;35.63;19.84;100219.72;5530171;32;35267;-67
2022/06/23 09:12:55;;;;;;;2.58;0.90;;;;;;;34.23;22.20;100215.72;5529202;32;33989;-69
2022/06/23 09:16:00;;;;;;;0.82;0.60;;;;;;;32.76;23.61;100209.38;5530013;32;33931;-68
2022/06/23 09:19:23;;;;;;;1.65;0.80;;;;;;;34.15;21.85;100219.25;5529164;32;34877;-69
2022/06/23 09:22:36;;;;;;;0.85;0.57;;;;;;;33.19;22.37;100223.22;5529740;32;34622;-67
2022/06/23 09:26:05;;;;;;;1.52;0.70;;;;;;;34.01;20.95;100216.72;5529117;32;34263;-67
2022/06/23 09:29:18;;;;;;;1.83;0.65;;;;;;;34.50;21.10;100201.50;5532174;32;34334;-68
2022/06/23 09:32:35;;;;;;;1.98;0.90;;;;;;;33.93;21.48;100212.06;5532231;32;33536;-67
2022/06/23 09:36:12;;;;;;;2.80;0.80;;;;;;;35.46;20.51;100208.88;5531646;32;33482;-67
2022/06/23 09:39:51;;;;;;;5.10;0.90;;;;;;;36.29;19.69;100214.22;5532139;32;34052;-68
2022/06/23 09:43:15;;;;;;;1.40;0.73;;;;;;;33.76;20.02;100207.38;5532014;32;34157;-67
2022/06/23 09:46:20;;;;;;;0.65;0.60;;;;;;;35.39;17.72;100225.12;5532092;32;34672;-69
2022/06/23 09:49:44;;;;;;;5.20;1.27;;;;;;;34.98;18.67;100212.12;5532591;32;33983;-67
2022/06/23 09:53:06;;;;;;;1.35;0.82;;;;;;;34.65;19.91;100209.22;5531989;32;34182;-68
2022/06/23 09:57:00;;;;;;;2.50;0.88;;;;;;;33.10;20.85;100203.94;5532060;32;34501;-66
2022/06/23 10:00:24;;;;;;;2.47;1.08;;;;;;;34.24;19.75;100203.53;5492032;32;33958;-69
2022/06/23 10:03:51;;;;;;;2.40;0.80;;;;;;;35.03;18.29;100203.66;5531477;32;33963;-68
2022/06/23 10:07:15;;;;;;;1.83;0.62;;;;;;;33.56;20.07;100210.75;5532066;32;33920;-68
2022/06/23 10:10:37;;;;;;;2.17;0.80;;;;;;;32.12;21.53;100211.66;5531889;32;33985;-67
2022/06/23 10:13:46;;;;;;;3.90;0.85;;;;;;;30.93;22.34;100209.50;5531456;32;35176;-68
2022/06/23 10:16:58;;;;;;;1.37;0.73;;;;;;;30.60;22.80;100206.06;5530635;32;32311;-66
2022/06/23 10:20:13;;;;;;;0.93;0.62;;;;;;;31.04;22.47;100217.22;5531290;32;34577;-68
2022/06/23 10:23:34;;;;;;;1.95;0.70;;;;;;;30.42;22.69;100204.22;5531700;32;34090;-69
2022/06/23 10:26:54;;;;;;;1.65;0.77;;;;;;;30.11;23.60;100215.72;5531837;32;34026;-67
2022/06/23 10:30:30;;;;;;;1.20;0.70;;;;;;;31.99;21.87;100206.22;5531655;32;34599;-66
2022/06/23 10:33:39;;;;;;;1.27;0.75;;;;;;;33.77;19.78;100211.75;5531784;32;34604;-67
2022/06/23 10:36:44;;;;;;;1.67;0.88;;;;;;;32.49;21.68;100212.28;5531265;32;35226;-69
2022/06/23 10:40:03;;;;;;;2.37;0.90;;;;;;;31.49;21.91;100200.84;5531294;32;34784;-67
2022/06/23 10:43:41;;;;;;;3.50;0.85;;;;;;;30.74;23.38;100209.63;5531554;32;35280;-68
2022/06/23 10:47:11;;;;;;;2.43;0.80;;;;;;;31.42;22.93;100206.75;5531431;32;34763;-68
2022/06/23 10:50:36;;;;;;;1.37;0.90;;;;;;;31.55;23.08;100199.63;5531766;32;34007;-68
2022/06/23 10:54:20;;;;;;;3.15;0.70;;;;;;;31.74;22.37;100207.69;5531685;32;34259;-68
2022/06/23 10:57:57;;;;;;;2.92;0.88;;;;;;;31.98;21.42;100207.34;5531540;32;34847;-68
2022/06/23 11:01:18;;;;;;;1.62;1.00;;;;;;;30.99;22.69;100205.53;5531254;32;34824;-68
2022/06/23 11:04:30;;;;;;;1.23;0.90;;;;;;;31.71;22.52;100208.31;5530572;32;32765;-68
2022/06/23 11:08:01;;;;;;;3.35;0.80;;;;;;;33.77;19.72;100205.44;5530773;32;34907;-67
2022/06/23 11:11:35;;;;;;;2.05;0.70;;;;;;;37.21;17.46;100200.63;5531052;32;34052;-67
2022/06/23 11:14:50;;;;;;;2.58;0.68;;;;;;;36.63;16.83;100201.16;5531582;32;34301;-68
2022/06/23 11:17:56;;;;;;;1.50;0.90;;;;;;;34.51;18.71;100194.06;5530628;32;33136;-68
2022/06/23 11:21:11;;;;;;;1.27;0.82;;;;;;;35.33;17.48;100203.63;5530916;32;33406;-68
2022/06/23 11:24:35;;;;;;;3.42;0.80;;;;;;;34.56;18.59;100194.69;5531682;32;34048;-68
2022/06/23 11:27:42;;;;;;;1.02;0.82;;;;;;;33.08;19.61;100195.19;5530988;32;32769;-68
2022/06/23 11:31:05;;;;;;;;;;;;;;;33.55;20.48;100193.44;5531821;32;34129;-68
2022/06/23 11:34:27;;;;;;;0.80;0.70;;;;;;;33.39;19.43;100194.28;5531345;32;34421;-68
2022/06/23 11:38:00;;;;;;;2.45;0.80;;;;;;;32.23;20.53;100184.75;5531246;32;34042;-68
2022/06/23 11:41:07;;;;;;;0.95;0.73;;;;;;;32.73;20.70;100183.31;5490308;32;32841;-68
2022/06/23 11:44:43;;;;;;;1.15;0.88;;;;;;;32.95;20.04;100184.34;5531682;32;33949;-68
2022/06/23 11:48:10;;;;;;;1.70;0.80;;;;;;;34.08;19.72;100189.50;5530171;32;34180;-69
2022/06/23 11:51:39;;;;;;;1.35;0.68;;;;;;;35.79;17.41;100175.78;5530689;32;34634;-68
2022/06/23 11:54:42;;;;;;;1.52;0.80;;;;;;;38.13;14.81;100183.84;5530715;32;32495;-68
2022/06/23 11:58:13;;;;;;;4.12;0.90;;;;;;;35.73;16.94;100191.75;5531524;32;34041;-67
2022/06/23 12:01:19;;;;;;;2.55;0.68;;;;;;;34.24;18.30;100187.84;5531280;32;33909;-67
2022/06/23 12:04:32;;;;;;;1.45;0.80;;;;;;;31.49;21.75;100189.87;5530502;32;32844;-69
2022/06/23 12:08:05;;;;;;;2.00;0.73;;;;;;;31.56;22.42;100187.56;5531201;32;34148;-67
2022/06/23 12:11:08;;;;;;;1.45;0.80;;;;;;;32.87;21.00;100187.91;5531435;32;34645;-67
2022/06/23 12:14:14;;;;;;;4.12;0.93;;;;;;;33.38;20.78;100196.22;5531164;32;34726;-67
2022/06/23 12:17:23;;;;;;;2.35;1.00;;;;;;;32.47;21.00;100187.91;5531023;32;35406;-68
2022/06/23 12:20:48;;;;;;;1.20;0.70;;;;;;;31.52;22.77;100186.50;5531360;32;34627;-67
2022/06/23 12:24:07;;;;;;;2.33;0.73;;;;;;;32.08;21.41;100196.09;5530941;32;33926;-68
2022/06/23 12:27:09;;;;;;;;;;;;;;;30.50;23.35;100190.66;5530723;32;32595;-68
2022/06/23 12:30:16;;;;;;;1.92;0.93;;;;;;;31.15;23.25;100193.16;5531484;32;34902;-69
2022/06/23 12:33:28;;;;;;;3.65;0.70;;;;;;;32.51;22.01;100188.91;5530467;32;32409;-68
2022/06/23 12:36:40;;;;;;;2.75;0.70;;;;;;;35.89;18.54;100197.44;5530859;32;34042;-68
2022/06/23 12:39:57;;;;;;;2.03;0.80;;;;;;;34.60;19.46;100192.87;5530112;32;34148;-68
2022/06/23 12:43:19;;;;;;;2.17;0.75;;;;;;;33.77;20.19;100195.22;5530253;32;34000;-68
2022/06/23 12:46:43;;;;;;;4.63;0.73;;;;;;;31.68;22.31;100185.06;5530953;32;34572;-65
2022/06/23 12:50:08;;;;;;;0.80;0.60;;;;;;;32.33;21.62;100184.47;5531111;32;34738;-68
2022/06/23 12:53:26;;;;;;;0.85;0.62;;;;;;;32.11;21.92;100185.31;5529949;32;34654;-67
2022/06/23 12:56:51;;;;;;;1.33;0.70;;;;;;;34.24;19.75;100193.34;5530843;32;33881;-67
2022/06/23 13:00:04;;;;;;;0.65;0.60;;;;;;;35.83;17.98;100187.75;5529645;32;33908;-67
2022/06/23 13:03:19;;;;;;;1.33;0.70;;;;;;;37.30;16.85;100189.41;5530674;32;34587;-68
2022/06/23 13:06:27;;;;;;;1.95;0.77;;;;;;;39.00;15.93;100194.69;5530583;32;34835;-68
2022/06/23 13:09:42;;;;;;;2.25;0.88;;;;;;;39.33;14.81;100193.44;5530442;32;33950;-68
2022/06/23 13:13:12;;;;;;;1.08;0.77;;;;;;;40.15;14.46;100182.72;5530359;32;34651;-68
2022/06/23 13:16:27;;;;;;;2.75;0.90;;;;;;;43.79;11.37;100184.81;5530273;32;34312;-67
2022/06/23 13:19:46;;;;;;;2.17;0.60;;;;;;;44.23;11.12;100189.28;5516629;32;34191;-68
2022/06/23 13:23:19;;;;;;;0.60;0.60;;;;;;;43.27;11.52;100183.47;5529954;32;34577;-68
2022/06/23 13:26:25;;;;;;;3.97;0.98;;;;;;;45.12;10.78;100184.41;5530056;32;34085;-68
2022/06/23 13:29:37;;;;;;;0.88;0.70;;;;;;;42.06;12.28;100179.81;5530181;32;34647;-66
2022/06/23 13:33:01;;;;;;;1.17;0.70;;;;;;;41.77;12.30;100165.97;5529676;32;34674;-68
2022/06/23 13:36:24;;;;;;;1.25;0.80;;;;;;;39.05;13.97;100171.41;5530194;32;33876;-67
2022/06/23 13:39:40;;;;;;;1.65;0.80;;;;;;;38.93;14.77;100168.75;5528571;32;34580;-67
2022/06/23 13:43:02;;;;;;;0.98;0.68;;;;;;;42.84;11.52;100158.13;5529547;32;34407;-68
2022/06/23 13:46:16;;;;;;;1.10;0.70;;;;;;;40.84;12.68;100158.44;5528564;32;32911;-66
2022/06/23 13:49:32;;;;;;;1.27;0.70;;;;;;;40.51;12.66;100155.53;5528126;32;33330;-69
2022/06/23 13:53:10;;;;;;;5.12;0.75;;;;;;;39.76;13.27;100153.44;5528061;32;34092;-67
2022/06/23 13:56:29;;;;;;;2.30;1.12;;;;;;;41.21;12.85;100156.56;5454465;32;34378;-68
2022/06/23 13:59:39;;;;;;;1.70;0.70;;;;;;;43.61;11.33;100147.66;5528914;32;33989;-67
2022/06/23 14:02:56;;;;;;;3.80;0.68;;;;;;;44.87;11.04;100148.84;5528371;32;35415;-67
2022/06/23 14:06:07;;;;;;;2.53;0.50;;;;;;;45.05;10.14;100150.81;5527909;32;34011;-67
2022/06/23 14:09:38;;;;;;;17.15;1.23;;;;;;;46.78;9.01;100155.16;5528363;32;33886;-68
2022/06/23 14:12:59;;;;;;;0.90;0.60;;;;;;;47.30;8.71;100155.75;5529692;32;35408;-68
2022/06/23 14:16:23;;;;;;;4.25;0.77;;;;;;;43.70;10.30;100145.28;5531326;32;33896;-69
2022/06/23 14:19:39;;;;;;;1.58;0.57;;;;;;;43.08;10.99;100139.91;5530185;32;32955;-68
2022/06/23 14:22:49;;;;;;;5.50;0.55;;;;;;;46.16;9.39;100144.16;5531190;32;34499;-69
2022/06/23 14:26:08;;;;;;;1.55;0.82;;;;;;;44.63;9.78;100146.09;5530721;32;34037;-67
2022/06/23 14:29:22;;;;;;;1.75;0.70;;;;;;;44.14;9.87;100142.94;5530911;32;34229;-68
2022/06/23 14:32:29;;;;;;;1.87;0.80;;;;;;;41.51;11.96;100133.44;5530571;32;34701;-69
2022/06/23 14:35:49;;;;;;;5.25;1.27;;;;;;;41.87;11.91;100132.66;5531283;32;34569;-69
2022/06/23 14:39:07;;;;;;;2.47;0.70;;;;;;;42.36;11.27;100128.69;5531009;32;33867;-68
2022/06/23 14:42:22;;;;;;;1.40;0.65;;;;;;;44.71;9.58;100125.31;5531510;32;34020;-68
2022/06/23 14:45:42;;;;;;;0.62;0.60;;;;;;;47.11;8.10;100117.84;5529846;32;34001;-68
2022/06/23 14:49:07;;;;;;;0.90;0.65;;;;;;;48.06;7.91;100123.31;5530195;32;34740;-68
2022/06/23 14:52:54;;;;;;;3.33;0.80;;;;;;;47.08;7.82;100124.34;5530521;32;34731;-68
2022/06/23 14:56:05;;;;;;;1.00;0.60;;;;;;;46.05;8.38;100116.16;5530872;32;34594;-68
2022/06/23 14:59:13;;;;;;;1.77;0.80;;;;;;;43.84;9.66;100120.16;5530061;32;33165;-68
2022/06/23 15:02:35;;;;;;;2.15;0.75;;;;;;;43.26;9.91;100106.44;5530891;32;34734;-68
2022/06/23 15:05:44;;;;;;;1.08;0.80;;;;;;;45.03;9.39;100100.03;5530997;32;35409;-68
2022/06/23 15:09:25;;;;;;;3.97;0.93;;;;;;;44.32;9.52;100095.41;5531123;32;35165;-68
2022/06/23 15:12:43;;;;;;;2.10;0.80;;;;;;;44.35;9.35;100099.41;5530857;32;34033;-68
2022/06/23 15:15:58;;;;;;;3.42;0.65;;;;;;;42.62;10.34;100108.91;5530915;32;33999;-69
2022/06/23 15:19:21;;;;;;;1.15;0.70;;;;;;;42.89;9.59;100098.31;5530651;32;34771;-69
2022/06/23 15:26:18;;;;;;;1.33;0.80;;;;;;;38.55;12.23;100089.06;5530591;32;34840;-67
2022/06/23 15:29:34;;;;;;;1.15;0.60;;;;;;;36.34;13.95;100086.91;5530484;32;34270;-67